createdAt,value
2023-01-19T00:02:02.954Z,99615.06
2023-01-19T00:08:15.899Z,99623.97
2023-01-19T00:14:21.597Z,99630.06
2023-01-19T00:20:24.276Z,99646.47
2023-01-19T00:26:30.872Z,99642.84
2023-01-19T00:32:35.924Z,99632.59
2023-01-19T00:38:40.579Z,99635.78
2023-01-19T00:44:44.300Z,99644.25
2023-01-19T00:50:48.389Z,99631.97
2023-01-19T00:56:50.562Z,99623.00
2023-01-19T01:02:53.241Z,99619.88
2023-01-19T01:08:55.477Z,99613.53
2023-01-19T01:14:57.518Z,99589.97
2023-01-19T01:21:05.112Z,99594.41
2023-01-19T01:27:07.432Z,99605.50
2023-01-19T01:33:11.715Z,99601.38
2023-01-19T01:39:14.859Z,99604.03
2023-01-19T01:45:33.119Z,99592.97
2023-01-19T01:51:40.687Z,99589.03
2023-01-19T01:57:48.525Z,99590.25
2023-01-19T02:03:55.888Z,99593.03
2023-01-19T02:10:17.567Z,99579.19
2023-01-19T02:16:19.942Z,99572.69
2023-01-19T02:22:40.940Z,99572.59
2023-01-19T02:28:49.209Z,99568.16
2023-01-19T02:34:51.310Z,99570.59
2023-01-19T02:40:57.295Z,99573.22
2023-01-19T02:46:59.803Z,99569.47
2023-01-19T02:53:35.570Z,99581.59
2023-01-19T03:00:10.311Z,99579.88
2023-01-19T03:06:49.587Z,99572.78
2023-01-19T03:13:03.552Z,99564.81
2023-01-19T03:19:28.710Z,99562.03
2023-01-19T03:25:36.615Z,99572.41
2023-01-19T03:31:43.510Z,99577.53
2023-01-19T03:37:50.785Z,99575.78
2023-01-19T03:43:55.655Z,99587.63
2023-01-19T03:49:58.630Z,99595.53
2023-01-19T03:56:01.023Z,99597.88
2023-01-19T04:02:03.221Z,99598.03
2023-01-19T04:08:06.211Z,99598.63
2023-01-19T04:14:08.343Z,99598.66
2023-01-19T04:20:12.465Z,99605.31
2023-01-19T04:26:14.593Z,99597.28
2023-01-19T04:32:17.228Z,99602.28
2023-01-19T04:38:20.349Z,99593.72
2023-01-19T04:44:22.391Z,99603.38
2023-01-19T04:50:25.145Z,99604.91
2023-01-19T04:56:28.213Z,99612.53
2023-01-19T05:02:31.405Z,99614.22
2023-01-19T05:08:34.629Z,99623.94
2023-01-19T05:14:37.059Z,99617.50
2023-01-19T09:32:14.367Z,99683.06
2023-01-19T09:38:20.997Z,99690.81
2023-01-19T09:44:34.492Z,99665.09
2023-01-19T09:50:47.684Z,99659.84
2023-01-19T09:56:52.641Z,99647.50
2023-01-19T10:03:24.877Z,99645.34
2023-01-19T10:09:48.982Z,99639.06
2023-01-19T10:16:41.809Z,99628.44
2023-01-19T10:22:49.215Z,99623.94
2023-01-19T10:29:10.502Z,99614.19
2023-01-19T10:35:24.004Z,99614.97
2023-01-19T10:41:44.413Z,99609.34
2023-01-19T10:47:49.103Z,99615.97
2023-01-19T10:54:01.274Z,99594.59
2023-01-19T11:00:06.884Z,99580.13
2023-01-19T11:06:21.403Z,99584.84
2023-01-19T11:12:25.611Z,99574.13
2023-01-19T11:18:31.914Z,99574.19
2023-01-19T11:24:38.982Z,99581.84
2023-01-19T11:30:57.816Z,99577.25
2023-01-19T11:37:06.585Z,99579.94
2023-01-19T11:43:13.625Z,99587.25
2023-01-19T11:49:28.128Z,99570.03
2023-01-19T11:55:53.897Z,99571.13
2023-01-19T12:02:01.183Z,99579.88
2023-01-19T12:08:07.968Z,99570.31
2023-01-19T12:14:24.883Z,99564.25
2023-01-19T12:20:39.027Z,99558.19
2023-01-19T12:26:48.270Z,99564.28
2023-01-19T12:32:57.290Z,99558.59
2023-01-19T12:39:08.610Z,99578.09
2023-01-19T12:45:23.240Z,99581.13
2023-01-19T12:51:28.364Z,99578.88
2023-01-19T12:57:46.617Z,99580.03
2023-01-19T13:04:26.308Z,99581.94
2023-01-19T13:10:54.284Z,99581.19
2023-01-19T13:17:01.586Z,99583.84
2023-01-19T13:23:25.746Z,99590.31
2023-01-19T13:29:44.619Z,99596.78
2023-01-19T13:35:56.794Z,99584.16
2023-01-19T13:42:06.757Z,99591.00
2023-01-19T13:48:17.501Z,99584.84
2023-01-19T13:54:21.512Z,99580.97
2023-01-19T14:00:30.118Z,99579.75
2023-01-19T14:06:48.238Z,99578.53
2023-01-19T14:13:21.433Z,99589.91
2023-01-19T14:19:24.756Z,99589.50
2023-01-19T14:25:29.193Z,99581.38
2023-01-19T14:31:34.018Z,99586.22
2023-01-19T14:37:38.602Z,99580.38
2023-01-19T14:43:45.294Z,99577.19
2023-01-19T14:49:49.153Z,99577.78
2023-01-19T14:55:59.044Z,99578.34
2023-01-19T15:02:01.656Z,99591.94
2023-01-19T15:08:05.016Z,99599.41
2023-01-19T15:14:08.190Z,99587.03
2023-01-19T15:20:21.440Z,99589.47
2023-01-19T15:26:25.526Z,99588.97
2023-01-19T15:32:28.089Z,99602.50
2023-01-19T15:38:30.152Z,99609.16
2023-01-19T15:44:32.344Z,99608.75
2023-01-19T15:50:40.446Z,99604.69
2023-01-19T15:56:54.935Z,99623.34
2023-01-19T16:03:01.556Z,99618.69
2023-01-19T16:09:04.950Z,99625.38
2023-01-19T16:15:08.939Z,99628.28
2023-01-19T16:21:11.312Z,99631.28
2023-01-19T16:27:14.127Z,99628.13
2023-01-19T16:33:18.604Z,99634.78
2023-01-19T16:39:22.051Z,99634.53
2023-01-19T16:45:28.497Z,99645.97
2023-01-19T16:51:33.491Z,99661.38
2023-01-19T16:57:38.135Z,99656.59
2023-01-19T17:03:45.046Z,99649.16
2023-01-19T17:09:49.752Z,99658.91
2023-01-19T17:15:53.490Z,99673.09
2023-01-19T17:21:56.058Z,99666.78
2023-01-19T17:28:01.462Z,99665.16
2023-01-19T17:34:05.535Z,99668.16
2023-01-19T17:40:08.708Z,99663.19
2023-01-19T17:46:11.710Z,99665.06
2023-01-19T17:52:17.862Z,99660.38
2023-01-19T17:58:20.595Z,99673.44
2023-01-19T18:04:23.139Z,99673.53
2023-01-19T18:10:26.053Z,99670.50
2023-01-19T18:16:30.908Z,99670.63
2023-01-19T18:22:34.689Z,99665.41
2023-01-19T18:28:37.053Z,99670.50
2023-01-19T18:34:40.595Z,99675.50
2023-01-19T18:40:44.604Z,99681.00
2023-01-19T18:46:46.723Z,99696.81
2023-01-19T18:52:51.387Z,99702.50
2023-01-19T18:58:54.158Z,99740.50
2023-01-19T19:04:58.214Z,99750.50
2023-01-19T19:11:00.711Z,99753.19
2023-01-19T19:17:04.678Z,99772.25
2023-01-19T19:23:07.193Z,99791.31
2023-01-19T19:29:12.414Z,99783.72
2023-01-19T19:35:18.787Z,99772.41
2023-01-19T19:41:23.678Z,99778.31
2023-01-19T19:47:25.770Z,99787.06
2023-01-19T19:53:28.164Z,99813.56
2023-01-19T19:59:30.562Z,99815.91
2023-01-19T20:05:36.184Z,99818.78
2023-01-19T20:11:40.386Z,99809.28
2023-01-19T20:17:43.026Z,99805.63
2023-01-19T20:23:46.492Z,99805.84
2023-01-19T20:29:58.176Z,99813.44
2023-01-19T20:36:00.754Z,99812.13
2023-01-19T20:42:06.178Z,99822.97
2023-01-19T20:48:08.334Z,99832.38
2023-01-19T20:54:16.938Z,99841.81
2023-01-19T21:00:20.379Z,99847.41
2023-01-19T21:06:23.468Z,99857.88
2023-01-19T21:12:27.930Z,99845.09
2023-01-19T21:18:31.208Z,99852.38
2023-01-19T21:24:35.649Z,99847.81
2023-01-19T21:30:38.861Z,99842.13
2023-01-19T21:36:42.134Z,99837.47
2023-01-19T21:42:44.181Z,99823.66
2023-01-19T21:48:46.533Z,99818.66
2023-01-19T21:54:48.811Z,99819.28
2023-01-19T22:00:59.738Z,99821.00
2023-01-19T22:07:02.244Z,99821.59
2023-01-19T22:13:06.932Z,99820.75
2023-01-19T22:19:13.120Z,99812.88
2023-01-19T22:25:16.571Z,99823.09
2023-01-19T22:31:19.399Z,99810.53
2023-01-19T22:37:22.604Z,99814.03
2023-01-19T22:43:27.194Z,99804.50
2023-01-19T22:49:29.966Z,99809.59
2023-01-19T22:55:33.396Z,99799.78
2023-01-19T23:01:40.638Z,99800.66
2023-01-19T23:07:45.088Z,99807.63
2023-01-19T23:13:51.124Z,99811.25
2023-01-19T23:19:56.475Z,99800.59
2023-01-19T23:26:02.691Z,99796.75
2023-01-19T23:32:09.179Z,99798.31
2023-01-19T23:38:13.541Z,99794.88
2023-01-19T23:44:18.375Z,99790.66
2023-01-19T23:50:20.498Z,99794.28
2023-01-19T23:56:27.461Z,99803.28
